Greenwood, IN (46143)

7:07 PM EDT on October 01, 2016 (GMT -0400)
Greenwood Commons | | Change Station

Elev 764 ft 39.62 °N, 86.14 °W | Updated 8 seconds ago

Overcast
Overcast
62.2 °F
Feels Like 62.2 °F
N
0.0
Wind Variable Wind from West
Gusts 0.0 mph

Today
High -- | Low -- °F
--% Chance of Precip.
Yesterday
High -- | Low -- °F
Precip. -- in
Pressure 29.99 in
Visibility 10.0 miles
Clouds Few 1800 ft
Overcast 8000 ft
Dew Point 40 °F
Humidity 44%
Rainfall 0.00 in
Snow Depth Not available.
7:41 AM 7:26 PM
New Moon, 1% visible
METAR KIND 012254Z 20007KT 10SM FEW018 OVC080 16/13 A2999 RMK AO2 RAE15 SLP155 P0000 T01610133
Pressure 29.99 in
Visibility 10.0 miles
Clouds Few 1800 ft
Overcast 8000 ft
Dew Point 40 °F
Humidity 44%
Rainfall 0.00 in
Snow Depth Not available.
7:41 AM 7:26 PM
New Moon, 1% visible
METAR KIND 012254Z 20007KT 10SM FEW018 OVC080 16/13 A2999 RMK AO2 RAE15 SLP155 P0000 T01610133

10-Day Weather Forecast

Almanac

Astronomy

Oct. 01, 2016 Rise Set
Actual Time
Civil Twilight
Nautical Twilight
Astronomical Twilight
Moon
Length of Visible Light
Length of Day
Tomorrow will be .
, % of the Moon is Illuminated

Today's Extremes

State Highs State Lows

Community

WunderPhotos

Upload Photos

1,943,047 photos uploaded!

WunderBlog® & News

Nearby

Air Quality

  Air Quality AQ Index Pollutant
Not available.

Snow Depth

Station Depth Elevation

Earthquake Activity

City Distance Mag. Time & Date
Minimum magnitude displayed is 2.5.

Coastal Water Temperatures

Place Temperature

Stations

Nearby Weather Stations

Station Location Temp. Windchill Dew Point Humidity Wind Precip. Elev Updated Type
                   

Watches & Warnings

There are currently no watches in effect.